Airfield :
LOGIN :

Register | Disclaimer

   EN    FR    IT 

 










Legend :    VFR   Marginal VFR   IFR   Intensive IFR   Very Intensive IFR
Visi :
Ceiling :
>= 8 km
>= 3000ft
5 to 8 km
1000 to 3000 ft
1500m to 5 km
500 to 1000 ft
800 to 1500m
200 to 500 ft
< 800m
< 200 ft
Symbols :   Thunderstorms  Fog  Heavy snow  Heavy precipitations  Wind > 20 kt
SIGMETs :     Misc.  Thunderstorms  Icing  Turbulence  Mountain Waves  Volcanic Ashes






- Airport Elevation : 170 ft
- IATA code : BGO


ENBR - Bergen , Flesland

CURRENT METAR :
  • 191550Z 14009KT 9999 FEW018 BKN030 05/02 Q1003 NOSIG RMK WIND 1200FT 13018KT

EXPIRED METARs :
  • 191520Z 16009KT 100V170 9999 FEW020 SCT045 05/02 Q1003 NOSIG RMK WIND 1200FT 14013KT
  • 191450Z 14008KT 9999 FEW018 06/02 Q1003 NOSIG RMK WIND 1200FT 13016KT
  • 191420Z 14008KT 9999 FEW018 06/02 Q1003 NOSIG RMK WIND 1200FT 14015KT
  • 191350Z 15010KT 9999 FEW015 05/02 Q1003 NOSIG RMK WIND 1200FT 14015KT
  • 191320Z 14008KT 9999 FEW013 06/03 Q1002 NOSIG RMK WIND 1200FT 14014KT

AMD TAF ENBR
Valid from the 19 at 12:00 until the 20 at 12:00 UTC


1912/2012 15008KT 9999 -SHRA FEW012TCU BKN025
BECMG 1923/2002 15022KT BKN009
TEMPO 2000/2012 15025G35KT 4000 BR RA BKN004



MET'MAP, your aeronautical weather chart ! - Copyright ORBIFLY December 2007 - Disclaimer

ORBIFLY MET'MAP TEAM :

Programming & Development : Alexandra Zaïnal
Concept & original design : Baudouin d'Aumeries
Assistance for programming : Marc-Olivier Méhu
Technical & hardware support : Manuel Goepfert

Contact : metmap@orbifly.com




SOURCES & CREDITS :

   NOAA